Time;durP1;ratioP1;P1;durP2;ratioP2;P2;SDS_P1;SDS_P2;PMS_P1;PMS_P2;Temp;Humidity;BMP_temperature;BMP_pressure;BME280_temperature;BME280_humidity;BME280_pressure;Samples;Min_cycle;Max_cycle;Signal;HPM_P1;HPM_P2
2021/11/04 00:02:06;;;;;;;9.80;9.00;;;11.30;47.40;;;;;;10345182;28;20810;-71
2021/11/04 00:07:13;;;;;;;9.23;8.53;;;11.20;46.70;;;;;;10359374;28;20226;-71
2021/11/04 00:12:16;;;;;;;10.37;9.53;;;11.20;46.90;;;;;;10343188;28;20226;-71
2021/11/04 00:17:19;;;;;;;10.00;9.10;;;11.30;46.80;;;;;;10354243;28;20226;-71
2021/11/04 00:22:24;;;;;;;10.33;9.53;;;11.30;46.80;;;;;;10349764;28;20230;-71
2021/11/04 00:27:27;;;;;;;10.40;9.50;;;11.30;47.70;;;;;;10349510;28;20527;-71
2021/11/04 00:32:30;;;;;;;10.43;9.63;;;11.30;46.70;;;;;;10342561;28;20629;-71
2021/11/04 00:37:34;;;;;;;10.97;10.07;;;11.30;46.80;;;;;;10351999;28;20227;-71
2021/11/04 00:42:38;;;;;;;11.00;10.13;;;11.30;46.90;;;;;;10355480;28;20230;-69
2021/11/04 00:47:41;;;;;;;11.27;10.30;;;11.30;46.80;;;;;;10349772;28;20241;-69
2021/11/04 00:52:46;;;;;;;10.43;9.53;;;11.20;46.80;;;;;;10352147;28;20237;-69
2021/11/04 00:57:49;;;;;;;9.90;9.10;;;11.20;46.90;;;;;;10345652;28;20608;-69
2021/11/04 01:02:53;;;;;;;8.47;7.80;;;11.30;47.00;;;;;;10369585;28;20254;-69
2021/11/04 01:07:59;;;;;;;10.17;9.17;;;11.30;46.80;;;;;;10398627;28;20224;-69
2021/11/04 01:13:02;;;;;;;9.60;8.80;;;11.20;46.90;;;;;;10395407;28;20226;-70
2021/11/04 01:18:05;;;;;;;9.67;8.87;;;11.20;46.90;;;;;;10402103;28;20615;-69
2021/11/04 01:23:10;;;;;;;9.93;9.07;;;11.20;46.90;;;;;;10401217;28;20222;-69
2021/11/04 01:28:15;;;;;;;10.57;9.67;;;11.20;46.90;;;;;;10407425;28;20230;-69
2021/11/04 01:33:18;;;;;;;9.60;8.80;;;11.20;47.70;;;;;;10394776;28;20226;-69
2021/11/04 01:38:23;;;;;;;8.40;7.70;;;11.10;46.80;;;;;;10397417;28;20607;-69
2021/11/04 01:43:27;;;;;;;8.83;8.13;;;11.20;47.00;;;;;;10399830;28;20698;-69
2021/11/04 01:48:31;;;;;;;8.70;8.00;;;11.10;46.70;;;;;;10394040;28;20232;-69
2021/11/04 01:53:35;;;;;;;8.30;7.60;;;11.10;46.80;;;;;;10395193;28;20698;-69
2021/11/04 01:58:38;;;;;;;8.50;7.60;;;11.10;46.80;;;;;;10393243;28;20238;-69
2021/11/04 02:03:47;;;;;;;8.43;7.73;;;11.10;46.80;;;;;;10395471;28;20226;-69
2021/11/04 02:08:59;;;;;;;8.63;7.93;;;11.10;46.90;;;;;;10400409;28;20324;-69
2021/11/04 02:14:05;;;;;;;8.40;7.70;;;11.00;46.70;;;;;;10395782;28;20214;-69
2021/11/04 02:19:17;;;;;;;8.83;8.13;;;11.00;46.70;;;;;;10399515;28;20240;-69
2021/11/04 02:24:28;;;;;;;9.47;8.57;;;11.00;46.80;;;;;;10377844;28;20328;-69
2021/11/04 02:29:35;;;;;;;8.87;8.07;;;11.00;46.70;;;;;;10352932;28;20230;-69
2021/11/04 02:34:40;;;;;;;9.60;8.83;;;11.00;46.70;;;;;;10354162;28;20234;-69
2021/11/04 02:39:45;;;;;;;9.77;8.97;;;11.00;46.70;;;;;;10360445;28;20230;-69
2021/11/04 02:44:49;;;;;;;9.47;8.67;;;10.90;46.70;;;;;;10359969;28;20213;-69
2021/11/04 02:49:53;;;;;;;9.43;8.47;;;10.90;46.70;;;;;;10370582;28;20238;-69
2021/11/04 02:54:59;;;;;;;8.20;7.60;;;10.80;46.60;;;;;;10349299;28;20231;-69
2021/11/04 03:00:05;;;;;;;8.27;7.67;;;10.80;46.60;;;;;;10348145;28;20233;-69
2021/11/04 03:05:08;;;;;;;8.47;7.77;;;10.70;46.80;;;;;;10351717;28;20226;-69
2021/11/04 03:10:12;;;;;;;7.70;7.10;;;10.70;46.80;;;;;;10351985;28;20230;-69
2021/11/04 03:15:20;;;;;;;7.93;7.27;;;10.70;46.60;;;;;;10355335;28;20289;-69
2021/11/04 03:20:23;;;;;;;7.53;6.93;;;10.60;47.10;;;;;;10353407;28;20245;-69
2021/11/04 03:25:26;;;;;;;7.77;7.17;;;10.60;46.70;;;;;;10343796;28;20226;-69
2021/11/04 03:30:36;;;;;;;7.23;6.73;;;10.60;46.60;;;;;;10357305;28;20233;-69
2021/11/04 03:35:41;;;;;;;7.53;6.93;;;10.60;47.30;;;;;;10348040;28;20235;-69
2021/11/04 03:40:45;;;;;;;7.20;6.70;;;10.50;46.90;;;;;;10356613;28;20333;-69
2021/11/04 03:45:51;;;;;;;7.70;7.10;;;10.50;47.10;;;;;;10346209;28;20231;-69
2021/11/04 03:50:57;;;;;;;7.03;6.43;;;10.50;47.30;;;;;;10354479;28;20223;-69
2021/11/04 03:56:00;;;;;;;6.60;6.10;;;10.50;47.20;;;;;;10356621;28;20219;-69
2021/11/04 04:01:04;;;;;;;6.20;5.70;;;10.50;47.00;;;;;;10348585;28;20233;-69
2021/11/04 04:06:09;;;;;;;5.47;4.97;;;10.60;47.10;;;;;;10354166;28;20221;-69
2021/11/04 04:11:12;;;;;;;5.50;5.10;;;10.60;46.80;;;;;;10357197;28;20795;-69
2021/11/04 04:16:17;;;;;;;5.23;4.83;;;10.50;46.70;;;;;;10351826;28;20227;-69
2021/11/04 04:21:21;;;;;;;4.23;3.93;;;10.50;47.00;;;;;;10350321;28;20604;-69
2021/11/04 04:26:24;;;;;;;3.90;3.60;;;10.40;47.00;;;;;;10357725;28;20226;-69
2021/11/04 04:31:29;;;;;;;4.57;4.17;;;10.30;47.10;;;;;;10352988;28;20237;-69
2021/11/04 04:36:32;;;;;;;4.10;3.80;;;10.40;47.30;;;;;;10356868;28;20241;-69
2021/11/04 04:41:35;;;;;;;3.60;3.30;;;10.40;47.00;;;;;;10350092;28;20651;-69
2021/11/04 04:46:39;;;;;;;3.97;3.67;;;10.40;47.00;;;;;;10352179;28;20226;-69
2021/11/04 04:51:43;;;;;;;4.10;3.80;;;10.30;47.20;;;;;;10359617;28;20230;-69
2021/11/04 04:56:46;;;;;;;3.27;3.07;;;10.20;47.00;;;;;;10363530;28;20679;-69
2021/11/04 05:01:50;;;;;;;3.43;3.13;;;10.20;47.00;;;;;;10358263;28;20223;-69
2021/11/04 05:06:53;;;;;;;3.33;3.03;;;10.10;47.30;;;;;;10365285;28;20223;-69
2021/11/04 05:11:56;;;;;;;3.83;3.53;;;10.10;47.10;;;;;;10362038;28;20234;-69
2021/11/04 05:17:01;;;;;;;3.33;3.03;;;10.10;47.00;;;;;;10357472;28;20218;-69
2021/11/04 05:22:04;;;;;;;3.80;3.50;;;10.10;47.20;;;;;;10362651;28;20839;-69
2021/11/04 05:27:08;;;;;;;4.10;3.80;;;10.10;47.00;;;;;;10356998;28;20595;-69
2021/11/04 05:32:13;;;;;;;4.23;3.93;;;10.10;46.90;;;;;;10358387;28;20738;-69
2021/11/04 05:37:16;;;;;;;4.30;4.00;;;10.10;46.90;;;;;;10355523;28;20226;-69
2021/11/04 05:42:19;;;;;;;3.97;3.67;;;10.10;46.80;;;;;;10348367;28;20738;-69
2021/11/04 05:47:24;;;;;;;3.17;2.97;;;10.10;46.90;;;;;;10358744;28;20227;-69
2021/11/04 05:52:27;;;;;;;2.80;2.60;;;10.00;46.70;;;;;;10356669;28;20235;-69
2021/11/04 05:57:30;;;;;;;2.40;2.30;;;10.00;46.60;;;;;;10362323;28;20235;-69
2021/11/04 06:02:35;;;;;;;2.00;1.90;;;9.90;47.50;;;;;;10355603;28;20234;-69
2021/11/04 06:07:38;;;;;;;1.40;1.30;;;9.90;47.70;;;;;;10356981;28;20233;-69
2021/11/04 06:12:41;;;;;;;1.20;1.20;;;9.80;47.40;;;;;;10367395;28;20233;-69
2021/11/04 06:17:45;;;;;;;1.60;1.50;;;9.80;47.50;;;;;;10359907;28;20225;-69
2021/11/04 06:22:48;;;;;;;1.80;1.70;;;9.70;47.60;;;;;;10353398;28;20222;-69
2021/11/04 06:27:52;;;;;;;2.10;2.00;;;9.60;47.70;;;;;;10351050;28;20223;-69
2021/11/04 06:32:56;;;;;;;2.40;2.20;;;9.60;47.80;;;;;;10360497;28;20223;-69
2021/11/04 06:37:59;;;;;;;2.07;1.97;;;9.60;48.10;;;;;;10349771;28;20761;-69
2021/11/04 06:43:02;;;;;;;2.40;2.10;;;9.60;47.90;;;;;;10354908;28;20222;-70
2021/11/04 06:48:13;;;;;;;1.83;1.73;;;9.50;47.90;;;;;;10349985;28;20234;-69
2021/11/04 06:53:21;;;;;;;1.40;1.30;;;9.50;48.20;;;;;;10356881;28;20253;-69
2021/11/04 06:58:29;;;;;;;3.37;1.77;;;9.50;48.40;;;;;;10355414;28;20226;-69
2021/11/04 07:03:42;;;;;;;1.80;1.60;;;9.50;48.50;;;;;;10356547;28;20714;-69
2021/11/04 07:08:54;;;;;;;1.30;1.20;;;9.50;48.10;;;;;;10353296;28;20223;-69
2021/11/04 07:13:57;;;;;;;1.60;1.50;;;9.60;47.80;;;;;;10357068;28;20229;-69
2021/11/04 07:19:02;;;;;;;1.57;1.47;;;9.60;48.10;;;;;;10350961;28;20225;-69
2021/11/04 07:24:07;;;;;;;1.50;1.40;;;9.60;48.20;;;;;;10347162;28;20223;-72
2021/11/04 07:29:12;;;;;;;1.70;1.60;;;9.60;48.20;;;;;;10346804;28;20511;-72
2021/11/04 07:34:18;;;;;;;1.40;1.30;;;9.60;48.30;;;;;;10345596;28;20231;-72
2021/11/04 07:39:21;;;;;;;1.63;1.53;;;9.50;48.30;;;;;;10357095;28;20244;-73
2021/11/04 07:44:24;;;;;;;1.30;1.20;;;9.50;48.20;;;;;;10351951;28;20735;-72
2021/11/04 07:49:29;;;;;;;1.63;1.53;;;9.50;48.30;;;;;;10350827;28;20226;-72
2021/11/04 07:54:32;;;;;;;1.20;1.20;;;9.50;48.60;;;;;;10363977;28;20223;-72
2021/11/04 07:59:35;;;;;;;2.00;1.80;;;9.50;48.30;;;;;;10349765;28;20242;-73
2021/11/04 08:04:40;;;;;;;1.70;1.60;;;9.50;48.20;;;;;;10357202;28;20234;-73
2021/11/04 08:09:43;;;;;;;2.80;2.43;;;9.50;48.30;;;;;;10352685;28;20242;-72
2021/11/04 08:14:46;;;;;;;1.20;1.20;;;9.60;48.10;;;;;;10352006;28;20224;-72
2021/11/04 08:19:50;;;;;;;1.87;1.47;;;9.50;47.80;;;;;;10346878;28;20726;-72
2021/11/04 08:24:55;;;;;;;1.87;1.40;;;9.50;47.80;;;;;;10342197;28;20219;-72
2021/11/04 08:29:58;;;;;;;1.87;1.77;;;9.40;47.60;;;;;;10347142;28;20707;-73
2021/11/04 08:35:02;;;;;;;1.10;1.00;;;9.30;47.70;;;;;;10349334;28;20225;-73
2021/11/04 08:40:07;;;;;;;0.90;0.90;;;9.30;48.00;;;;;;10346853;28;20234;-72
2021/11/04 08:45:10;;;;;;;1.07;1.07;;;9.30;48.00;;;;;;10355127;28;20244;-72
2021/11/04 08:50:15;;;;;;;1.17;1.10;;;9.20;47.80;;;;;;10351781;28;20230;-72
2021/11/04 08:55:18;;;;;;;2.00;1.20;;;9.30;47.70;;;;;;10352288;28;20227;-72
2021/11/04 09:00:22;;;;;;;1.20;1.20;;;9.20;47.70;;;;;;10363175;28;20237;-72
2021/11/04 09:05:26;;;;;;;1.37;1.27;;;9.20;47.70;;;;;;10349425;28;20222;-72
2021/11/04 09:10:29;;;;;;;1.47;1.40;;;9.20;47.70;;;;;;10353563;28;20745;-73
2021/11/04 09:15:32;;;;;;;1.70;1.60;;;9.10;47.70;;;;;;10346965;28;20227;-73
2021/11/04 09:20:37;;;;;;;1.93;1.70;;;9.00;47.80;;;;;;10352552;28;20230;-73
2021/11/04 09:25:41;;;;;;;1.80;1.70;;;8.90;48.10;;;;;;10356550;28;20608;-73
2021/11/04 09:30:44;;;;;;;1.70;1.60;;;8.90;48.30;;;;;;10355690;28;20711;-73
2021/11/04 09:35:49;;;;;;;1.70;1.60;;;8.90;48.50;;;;;;10354079;28;20223;-73
2021/11/04 09:40:54;;;;;;;2.10;2.00;;;9.00;48.80;;;;;;10358407;28;20234;-73
2021/11/04 09:46:00;;;;;;;1.80;1.70;;;9.00;48.80;;;;;;10350473;28;20222;-73
2021/11/04 09:51:05;;;;;;;2.00;1.90;;;9.10;49.00;;;;;;10348248;28;20227;-72
2021/11/04 09:56:08;;;;;;;2.00;1.90;;;9.20;49.10;;;;;;10360572;28;20237;-72
2021/11/04 10:01:17;;;;;;;2.00;1.90;;;9.30;49.10;;;;;;10359777;28;20309;-72
2021/11/04 10:06:23;;;;;;;2.00;1.90;;;9.40;49.10;;;;;;10363011;28;20226;-72
2021/11/04 10:11:30;;;;;;;1.40;1.40;;;9.50;49.00;;;;;;10368619;28;20225;-72
2021/11/04 10:16:35;;;;;;;1.60;1.50;;;9.60;49.00;;;;;;10354483;28;20226;-72
2021/11/04 10:21:51;;;;;;;1.37;1.30;;;9.70;48.70;;;;;;10355420;28;20238;-72
2021/11/04 10:26:55;;;;;;;1.60;1.50;;;9.80;48.50;;;;;;10350778;28;20229;-72
2021/11/04 10:31:59;;;;;;;3.70;1.57;;;9.80;48.40;;;;;;10347368;28;20244;-72
2021/11/04 10:37:11;;;;;;;1.60;1.50;;;9.80;48.40;;;;;;10358679;28;20223;-72
2021/11/04 10:42:14;;;;;;;2.27;1.60;;;9.80;48.60;;;;;;10353275;28;20241;-72
2021/11/04 10:47:18;;;;;;;1.47;1.40;;;9.90;48.40;;;;;;10356454;28;20230;-72
2021/11/04 10:52:28;;;;;;;1.70;1.60;;;10.00;47.40;;;;;;10353317;28;20641;-72
2021/11/04 10:57:35;;;;;;;1.53;1.43;;;10.00;47.30;;;;;;10344654;28;20227;-72
2021/11/04 11:02:38;;;;;;;1.20;1.20;;;10.10;47.30;;;;;;10353119;28;20746;-72
2021/11/04 11:07:42;;;;;;;1.50;1.40;;;10.20;47.90;;;;;;10357522;28;20596;-72
2021/11/04 11:12:45;;;;;;;1.20;1.20;;;10.40;47.90;;;;;;10348790;28;20225;-72
2021/11/04 11:17:49;;;;;;;1.10;1.10;;;10.50;47.90;;;;;;10359245;28;20255;-72
2021/11/04 11:22:54;;;;;;;1.50;1.40;;;10.60;47.40;;;;;;10349370;28;20679;-72
2021/11/04 11:27:57;;;;;;;1.20;1.20;;;10.70;47.80;;;;;;10359908;28;20222;-72
2021/11/04 11:33:20;;;;;;;1.30;1.30;;;10.90;47.90;;;;;;10358657;28;20217;-72
2021/11/04 11:38:24;;;;;;;1.50;1.40;;;11.10;46.80;;;;;;10351514;28;20279;-72
2021/11/04 11:43:27;;;;;;;1.30;1.30;;;11.20;46.50;;;;;;10360215;28;20604;-72
2021/11/04 11:48:30;;;;;;;1.50;1.50;;;11.10;46.50;;;;;;10350017;28;20249;-72
2021/11/04 11:53:39;;;;;;;1.20;1.20;;;11.10;46.40;;;;;;10342786;28;20581;-72
2021/11/04 11:58:44;;;;;;;1.40;1.40;;;11.10;46.20;;;;;;10348513;28;20236;-72
2021/11/04 12:03:52;;;;;;;1.23;1.23;;;11.10;46.50;;;;;;10338998;28;20726;-72
2021/11/04 12:08:59;;;;;;;1.50;1.40;;;11.10;46.10;;;;;;10345773;28;20739;-70
2021/11/04 12:14:29;;;;;;;1.10;1.10;;;11.10;45.90;;;;;;10336272;28;20229;-70
2021/11/04 12:19:33;;;;;;;1.20;1.20;;;11.20;46.10;;;;;;10339989;28;20731;-72
2021/11/04 12:24:46;;;;;;;1.10;1.10;;;11.20;46.10;;;;;;10341936;28;20244;-72
2021/11/04 12:29:50;;;;;;;2.33;2.13;;;11.20;45.60;;;;;;10342807;28;20230;-72
2021/11/04 12:34:58;;;;;;;2.80;2.03;;;11.20;46.00;;;;;;10341230;28;20230;-72
2021/11/04 12:40:05;;;;;;;1.03;0.97;;;11.20;45.80;;;;;;10346987;28;20219;-72
2021/11/04 12:45:09;;;;;;;1.20;1.20;;;11.20;46.50;;;;;;10339783;28;20230;-72
2021/11/04 12:50:12;;;;;;;1.20;1.20;;;11.10;45.90;;;;;;10342851;28;20225;-72
2021/11/04 12:55:23;;;;;;;1.23;1.20;;;11.10;46.00;;;;;;10356740;28;20220;-72
2021/11/04 13:00:26;;;;;;;1.10;1.10;;;11.00;46.00;;;;;;10355437;28;20234;-72
2021/11/04 13:05:29;;;;;;;0.90;0.90;;;10.90;46.20;;;;;;10361971;28;20231;-72
2021/11/04 13:10:34;;;;;;;2.53;2.33;;;10.90;46.20;;;;;;10358932;28;20241;-72
2021/11/04 13:15:39;;;;;;;1.40;1.27;;;11.00;46.30;;;;;;10356117;28;20223;-72
2021/11/04 13:20:44;;;;;;;1.17;1.17;;;11.00;46.10;;;;;;10356939;28;20324;-72
2021/11/04 13:25:50;;;;;;;0.83;0.83;;;11.00;45.90;;;;;;10361635;28;20236;-72
2021/11/04 13:30:55;;;;;;;0.90;0.90;;;10.90;45.70;;;;;;10354888;28;20219;-72
2021/11/04 13:36:22;;;;;;;1.80;1.70;;;10.90;45.70;;;;;;10358770;28;20594;-72
2021/11/04 13:41:29;;;;;;;0.90;0.90;;;10.80;45.50;;;;;;10349616;28;20234;-72
2021/11/04 13:46:32;;;;;;;0.80;0.80;;;10.70;45.60;;;;;;10361057;28;20222;-72
2021/11/04 13:51:37;;;;;;;0.70;0.70;;;10.60;45.40;;;;;;10358766;28;20241;-69
2021/11/04 13:56:45;;;;;;;0.90;0.90;;;10.50;45.50;;;;;;10356055;28;20225;-69
2021/11/04 14:01:53;;;;;;;1.00;1.00;;;10.40;45.90;;;;;;10352847;28;20231;-69
2021/11/04 14:06:56;;;;;;;1.03;0.93;;;10.40;46.20;;;;;;10365583;28;20309;-69
2021/11/04 14:12:06;;;;;;;0.90;0.90;;;10.30;46.10;;;;;;10354303;28;20233;-69
2021/11/04 14:17:10;;;;;;;1.00;1.00;;;10.30;46.10;;;;;;10356453;28;20601;-70
2021/11/04 14:22:15;;;;;;;1.30;1.20;;;10.30;46.20;;;;;;10354835;28;20598;-69
2021/11/04 14:27:20;;;;;;;3.20;3.00;;;10.30;46.20;;;;;;10358712;28;20233;-70
2021/11/04 14:32:23;;;;;;;1.60;1.50;;;10.30;46.30;;;;;;10350333;28;20237;-69
2021/11/04 14:37:27;;;;;;;1.50;1.40;;;10.30;46.10;;;;;;10352912;28;20962;-69
2021/11/04 14:42:33;;;;;;;1.10;1.10;;;10.30;46.40;;;;;;10344162;28;20222;-70
2021/11/04 14:47:38;;;;;;;1.43;1.33;;;10.30;47.20;;;;;;10355460;28;20226;-69
2021/11/04 14:52:41;;;;;;;1.67;1.57;;;10.30;46.10;;;;;;10356353;28;20226;-71
2021/11/04 14:57:46;;;;;;;1.43;1.33;;;10.30;46.10;;;;;;10357801;28;20757;-71
2021/11/04 15:02:49;;;;;;;1.47;1.37;;;10.40;46.20;;;;;;10351718;28;20230;-71
2021/11/04 15:07:52;;;;;;;1.40;1.40;;;10.40;46.20;;;;;;10351771;28;20219;-71
2021/11/04 15:13:15;;;;;;;1.47;1.40;;;10.40;46.00;;;;;;10362608;28;20222;-71
2021/11/04 15:18:18;;;;;;;1.87;1.40;;;10.40;46.00;;;;;;10360018;28;20254;-71
2021/11/04 15:23:22;;;;;;;1.43;1.40;;;10.40;45.90;;;;;;10351217;28;20240;-71
2021/11/04 15:28:26;;;;;;;2.23;1.50;;;10.30;45.80;;;;;;10357692;28;20726;-70
2021/11/04 15:33:30;;;;;;;1.80;1.70;;;10.30;45.90;;;;;;10351395;28;20709;-71
2021/11/04 15:38:33;;;;;;;1.90;1.80;;;10.30;46.00;;;;;;10352567;28;20227;-71
2021/11/04 15:43:37;;;;;;;1.80;1.70;;;10.20;45.90;;;;;;10344091;28;20231;-71
2021/11/04 15:48:43;;;;;;;1.97;1.87;;;10.20;46.00;;;;;;10350753;28;20234;-71
2021/11/04 15:53:46;;;;;;;2.00;1.90;;;10.20;46.00;;;;;;10347969;28;20226;-71
2021/11/04 15:58:52;;;;;;;1.90;1.80;;;10.10;46.00;;;;;;10352154;28;20234;-71
2021/11/04 16:03:55;;;;;;;2.00;1.90;;;10.10;46.00;;;;;;10357950;23;20219;-69
2021/11/04 16:08:59;;;;;;;2.27;2.07;;;10.10;46.00;;;;;;10311893;28;20227;-69
2021/11/04 16:14:04;;;;;;;2.47;2.27;;;10.20;46.00;;;;;;10305477;28;20606;-70
2021/11/04 16:19:07;;;;;;;2.33;2.13;;;10.20;46.10;;;;;;10316349;28;20226;-70
2021/11/04 16:24:12;;;;;;;2.40;2.27;;;10.20;46.00;;;;;;10302955;28;20227;-69
2021/11/04 16:29:17;;;;;;;2.67;2.47;;;10.30;46.10;;;;;;10310009;28;20237;-69
2021/11/04 16:34:20;;;;;;;3.13;2.93;;;10.30;46.00;;;;;;10317598;28;20226;-69
2021/11/04 16:39:23;;;;;;;3.17;2.97;;;10.30;45.90;;;;;;10313130;28;20235;-69
2021/11/04 16:44:28;;;;;;;3.87;3.57;;;10.30;45.80;;;;;;10311208;28;20239;-70
2021/11/04 16:49:31;;;;;;;3.17;2.97;;;10.30;45.80;;;;;;10313352;28;20600;-69
2021/11/04 16:54:42;;;;;;;2.67;2.47;;;10.40;45.90;;;;;;10314073;28;20593;-69
2021/11/04 16:59:47;;;;;;;3.87;3.57;;;10.40;45.80;;;;;;10323649;28;20603;-69
2021/11/04 17:04:50;;;;;;;3.50;3.30;;;10.40;45.80;;;;;;10308941;28;20231;-69
2021/11/04 17:09:53;;;;;;;3.37;3.10;;;10.40;45.70;;;;;;10315218;28;20230;-69
2021/11/04 17:14:58;;;;;;;3.43;3.17;;;10.50;45.60;;;;;;10307698;28;20234;-69
2021/11/04 17:20:01;;;;;;;3.57;3.27;;;10.50;45.40;;;;;;10303303;28;20715;-70
2021/11/04 17:25:09;;;;;;;3.73;3.50;;;10.40;45.50;;;;;;10305396;28;20231;-69
2021/11/04 17:30:15;;;;;;;4.57;4.17;;;10.40;45.50;;;;;;10311885;28;20226;-69
2021/11/04 17:35:21;;;;;;;5.40;4.90;;;10.40;45.50;;;;;;10304465;28;22982;-69
2021/11/04 17:40:25;;;;;;;4.43;4.13;;;10.40;45.60;;;;;;10309617;28;20219;-69
2021/11/04 17:45:30;;;;;;;5.07;4.10;;;10.50;45.70;;;;;;10313950;28;20641;-69
2021/11/04 17:50:39;;;;;;;5.40;4.90;;;10.40;45.70;;;;;;10307507;28;20875;-69
2021/11/04 17:55:42;;;;;;;4.77;4.37;;;10.40;46.50;;;;;;10312973;28;20228;-69
2021/11/04 18:00:49;;;;;;;4.87;4.53;;;10.40;45.90;;;;;;10310993;28;20241;-69
2021/11/04 18:05:52;;;;;;;5.33;4.93;;;10.30;45.80;;;;;;10304145;28;20234;-69
2021/11/04 18:10:56;;;;;;;4.80;4.50;;;10.30;45.90;;;;;;10311075;28;20227;-69
2021/11/04 18:16:00;;;;;;;6.37;5.87;;;10.20;45.80;;;;;;10301947;28;20227;-69
2021/11/04 18:21:04;;;;;;;6.13;5.63;;;10.10;45.70;;;;;;10309941;28;20223;-69
2021/11/04 18:26:07;;;;;;;5.63;5.13;;;10.10;45.80;;;;;;10309697;28;20254;-69
2021/11/04 18:31:12;;;;;;;5.27;4.87;;;10.00;45.40;;;;;;10302747;28;20223;-69
2021/11/04 18:36:15;;;;;;;5.30;4.90;;;9.90;46.30;;;;;;10306699;28;20749;-69
2021/11/04 18:41:20;;;;;;;5.10;4.70;;;9.80;46.40;;;;;;10301194;28;20752;-69
2021/11/04 18:46:25;;;;;;;5.10;4.70;;;9.80;46.30;;;;;;10305008;28;20832;-69
2021/11/04 18:51:29;;;;;;;4.50;4.17;;;9.80;46.30;;;;;;10312924;28;20226;-69
2021/11/04 18:56:34;;;;;;;4.70;4.30;;;9.70;46.10;;;;;;10305274;28;20605;-69
2021/11/04 19:01:38;;;;;;;4.57;4.27;;;9.60;46.30;;;;;;10309500;28;20247;-69
2021/11/04 19:06:41;;;;;;;4.93;4.53;;;9.60;46.50;;;;;;10301786;28;20226;-69
2021/11/04 19:11:44;;;;;;;6.10;5.60;;;9.50;46.40;;;;;;10303944;28;20216;-69
2021/11/04 19:16:50;;;;;;;5.23;4.83;;;9.40;46.30;;;;;;10307372;28;20227;-69
2021/11/04 19:21:56;;;;;;;11.93;10.87;;;9.30;46.30;;;;;;10303362;28;20216;-69
2021/11/04 19:26:59;;;;;;;6.70;6.10;;;9.30;46.50;;;;;;10304963;28;20239;-69
2021/11/04 19:32:05;;;;;;;5.60;5.03;;;9.30;46.50;;;;;;10307029;28;20235;-69
2021/11/04 19:37:08;;;;;;;5.80;5.30;;;9.20;46.40;;;;;;10309916;28;20738;-69
2021/11/04 19:42:11;;;;;;;6.53;4.33;;;9.20;46.20;;;;;;10307044;28;20234;-69
2021/11/04 19:47:16;;;;;;;5.00;4.60;;;9.20;46.20;;;;;;10306063;28;20231;-69
2021/11/04 19:52:19;;;;;;;5.07;4.67;;;9.30;46.20;;;;;;10301419;28;20227;-69
2021/11/04 19:57:22;;;;;;;4.50;4.20;;;9.30;46.30;;;;;;10308583;28;20237;-68
2021/11/04 20:02:27;;;;;;;4.47;4.17;;;9.30;46.20;;;;;;10303284;28;20234;-69
2021/11/04 20:07:30;;;;;;;4.57;4.17;;;9.30;46.30;;;;;;10301036;28;20645;-69
2021/11/04 20:12:34;;;;;;;3.90;3.60;;;9.30;46.20;;;;;;10312169;28;20231;-69
2021/11/04 20:17:41;;;;;;;4.00;3.70;;;9.30;46.20;;;;;;10303918;28;20236;-69
2021/11/04 20:22:44;;;;;;;3.60;3.30;;;9.20;46.10;;;;;;10303683;28;20230;-69
2021/11/04 20:27:48;;;;;;;3.83;3.50;;;9.20;46.10;;;;;;10307661;28;20235;-68
2021/11/04 20:32:53;;;;;;;3.33;3.13;;;9.20;46.10;;;;;;10307926;28;20223;-69
2021/11/04 20:37:56;;;;;;;3.73;3.50;;;9.20;46.10;;;;;;10308285;28;20236;-69
2021/11/04 20:43:00;;;;;;;3.30;3.10;;;9.10;46.20;;;;;;10307171;28;20233;-69
2021/11/04 20:48:05;;;;;;;3.80;3.50;;;9.00;46.10;;;;;;10299552;28;20233;-70
2021/11/04 20:53:08;;;;;;;4.40;4.10;;;9.00;46.10;;;;;;10302569;28;20675;-69
2021/11/04 20:58:12;;;;;;;4.20;3.90;;;9.00;46.20;;;;;;10285131;28;20692;-69
2021/11/04 21:03:16;;;;;;;5.17;4.77;;;8.90;46.30;;;;;;10283854;28;20632;-69
2021/11/04 21:08:21;;;;;;;5.43;5.03;;;8.90;46.20;;;;;;10299933;28;20227;-68
2021/11/04 21:13:24;;;;;;;5.17;4.77;;;8.90;46.40;;;;;;10305514;28;20229;-69
2021/11/04 21:18:29;;;;;;;4.93;4.53;;;8.90;46.50;;;;;;10303428;28;20236;-69
2021/11/04 21:23:33;;;;;;;5.80;5.30;;;8.90;46.50;;;;;;10315238;28;20227;-69
2021/11/04 21:28:38;;;;;;;5.67;5.27;;;8.80;46.40;;;;;;10313420;28;20294;-69
2021/11/04 21:33:42;;;;;;;5.47;5.07;;;8.90;46.40;;;;;;10308450;28;20228;-69
2021/11/04 21:38:46;;;;;;;5.93;5.50;;;8.80;46.30;;;;;;10317959;28;20234;-69
2021/11/04 21:43:52;;;;;;;5.50;5.00;;;8.80;46.30;;;;;;10284238;28;20239;-69
2021/11/04 21:48:57;;;;;;;5.80;5.30;;;8.70;46.20;;;;;;10309488;28;20224;-69
2021/11/04 21:54:00;;;;;;;5.53;5.03;;;8.70;46.50;;;;;;10300209;28;20238;-69
2021/11/04 21:59:04;;;;;;;5.93;5.40;;;8.70;46.60;;;;;;10310964;28;20600;-69
2021/11/04 22:04:09;;;;;;;5.93;5.40;;;8.70;46.50;;;;;;10314722;28;20601;-69
2021/11/04 22:09:14;;;;;;;6.17;5.67;;;8.70;46.30;;;;;;10307042;28;20232;-69
2021/11/04 22:14:17;;;;;;;5.87;5.37;;;8.70;45.90;;;;;;10310537;28;20683;-69
2021/11/04 22:19:22;;;;;;;5.73;5.33;;;8.60;45.80;;;;;;10311706;28;20720;-69
2021/11/04 22:24:25;;;;;;;6.07;5.57;;;8.60;45.70;;;;;;10302926;28;20242;-69
2021/11/04 22:29:30;;;;;;;6.50;5.90;;;8.50;45.60;;;;;;10306222;28;20227;-68
2021/11/04 22:34:35;;;;;;;7.60;6.33;;;8.40;45.60;;;;;;10298645;28;20735;-69
2021/11/04 22:39:38;;;;;;;6.47;5.90;;;8.30;45.80;;;;;;10312302;28;20234;-68
2021/11/04 22:44:41;;;;;;;7.70;6.30;;;8.30;46.00;;;;;;10314981;28;20347;-69
2021/11/04 22:49:46;;;;;;;7.17;6.47;;;8.30;45.90;;;;;;10306586;28;20313;-69
2021/11/04 22:54:49;;;;;;;6.40;5.90;;;8.20;46.00;;;;;;10303644;28;21251;-69
2021/11/04 22:59:52;;;;;;;6.63;6.00;;;8.20;45.90;;;;;;10317250;28;20233;-69
2021/11/04 23:04:56;;;;;;;6.63;6.07;;;8.20;45.80;;;;;;10311427;28;20234;-69
2021/11/04 23:10:00;;;;;;;6.90;6.20;;;8.20;45.90;;;;;;10304107;28;20215;-70
2021/11/04 23:15:04;;;;;;;6.90;6.30;;;8.10;45.80;;;;;;10316591;28;20229;-69
2021/11/04 23:20:11;;;;;;;7.07;6.50;;;8.10;45.80;;;;;;10308745;28;20571;-69
2021/11/04 23:25:15;;;;;;;6.60;6.00;;;8.10;45.80;;;;;;10305377;28;20234;-69
2021/11/04 23:30:20;;;;;;;6.80;6.20;;;8.10;45.80;;;;;;10307678;28;20229;-69
2021/11/04 23:35:27;;;;;;;6.60;6.10;;;8.10;45.80;;;;;;10305534;28;20235;-69
2021/11/04 23:40:32;;;;;;;7.27;6.67;;;8.20;45.70;;;;;;10303329;28;20219;-68
2021/11/04 23:45:37;;;;;;;6.53;6.03;;;8.20;45.60;;;;;;10299480;28;20232;-69
2021/11/04 23:50:43;;;;;;;6.90;6.10;;;8.20;45.40;;;;;;10307406;28;20250;-68
2021/11/04 23:55:46;;;;;;;5.93;5.47;;;8.20;45.40;;;;;;10311061;28;20226;-69
